sensor_id;sensor_type;location;lat;lon;timestamp;P1;durP1;ratioP1;P2;durP2;ratioP2
6926;SDS011;3503;50.07605000;8.86719200;2024-03-06T00:05:35;23.90;;;15.50;;
6926;SDS011;3503;50.07605000;8.86719200;2024-03-06T00:20:38;18.23;;;12.63;;
6926;SDS011;3503;50.07605000;8.86719200;2024-03-06T00:35:43;21.50;;;12.77;;
6926;SDS011;3503;50.07605000;8.86719200;2024-03-06T00:50:46;19.10;;;12.20;;
6926;SDS011;3503;50.07605000;8.86719200;2024-03-06T01:05:49;18.60;;;10.43;;
6926;SDS011;3503;50.07605000;8.86719200;2024-03-06T01:20:53;16.60;;;9.40;;
6926;SDS011;3503;50.07605000;8.86719200;2024-03-06T01:35:56;15.63;;;9.27;;
6926;SDS011;3503;50.07605000;8.86719200;2024-03-06T01:50:59;28.00;;;10.30;;
6926;SDS011;3503;50.07605000;8.86719200;2024-03-06T02:06:03;16.77;;;9.70;;
6926;SDS011;3503;50.07605000;8.86719200;2024-03-06T02:21:07;13.30;;;8.23;;
6926;SDS011;3503;50.07605000;8.86719200;2024-03-06T02:36:10;14.10;;;9.77;;
6926;SDS011;3503;50.07605000;8.86719200;2024-03-06T02:51:13;12.83;;;9.30;;
6926;SDS011;3503;50.07605000;8.86719200;2024-03-06T03:06:21;12.23;;;7.77;;
6926;SDS011;3503;50.07605000;8.86719200;2024-03-06T03:21:25;13.83;;;8.60;;
6926;SDS011;3503;50.07605000;8.86719200;2024-03-06T03:36:28;11.60;;;7.83;;
6926;SDS011;3503;50.07605000;8.86719200;2024-03-06T03:51:31;11.93;;;7.67;;
6926;SDS011;3503;50.07605000;8.86719200;2024-03-06T04:06:34;9.27;;;6.80;;
6926;SDS011;3503;50.07605000;8.86719200;2024-03-06T04:21:41;14.73;;;7.73;;
6926;SDS011;3503;50.07605000;8.86719200;2024-03-06T04:36:44;12.17;;;7.47;;
6926;SDS011;3503;50.07605000;8.86719200;2024-03-06T04:51:47;15.10;;;7.20;;
6926;SDS011;3503;50.07605000;8.86719200;2024-03-06T05:06:50;13.53;;;8.10;;
6926;SDS011;3503;50.07605000;8.86719200;2024-03-06T05:21:53;12.90;;;8.40;;
6926;SDS011;3503;50.07605000;8.86719200;2024-03-06T05:36:55;16.93;;;8.27;;
6926;SDS011;3503;50.07605000;8.86719200;2024-03-06T05:51:58;15.40;;;9.70;;
6926;SDS011;3503;50.07605000;8.86719200;2024-03-06T06:07:02;17.97;;;10.50;;
6926;SDS011;3503;50.07605000;8.86719200;2024-03-06T06:22:05;14.00;;;8.40;;
6926;SDS011;3503;50.07605000;8.86719200;2024-03-06T06:37:08;15.10;;;8.87;;
6926;SDS011;3503;50.07605000;8.86719200;2024-03-06T06:52:11;15.80;;;10.17;;
6926;SDS011;3503;50.07605000;8.86719200;2024-03-06T07:07:14;14.30;;;9.53;;
6926;SDS011;3503;50.07605000;8.86719200;2024-03-06T07:22:18;19.50;;;10.97;;
6926;SDS011;3503;50.07605000;8.86719200;2024-03-06T07:37:21;21.97;;;11.73;;
6926;SDS011;3503;50.07605000;8.86719200;2024-03-06T07:52:24;19.93;;;13.13;;
6926;SDS011;3503;50.07605000;8.86719200;2024-03-06T08:07:27;15.40;;;10.47;;
6926;SDS011;3503;50.07605000;8.86719200;2024-03-06T08:22:30;22.20;;;13.43;;
6926;SDS011;3503;50.07605000;8.86719200;2024-03-06T08:37:34;23.77;;;14.70;;
6926;SDS011;3503;50.07605000;8.86719200;2024-03-06T08:52:37;25.60;;;15.83;;
6926;SDS011;3503;50.07605000;8.86719200;2024-03-06T09:07:40;33.13;;;18.03;;
6926;SDS011;3503;50.07605000;8.86719200;2024-03-06T09:22:43;33.23;;;18.27;;
6926;SDS011;3503;50.07605000;8.86719200;2024-03-06T09:37:46;34.97;;;20.70;;
6926;SDS011;3503;50.07605000;8.86719200;2024-03-06T09:52:49;34.20;;;19.73;;
6926;SDS011;3503;50.07605000;8.86719200;2024-03-06T10:07:54;33.30;;;20.70;;
6926;SDS011;3503;50.07605000;8.86719200;2024-03-06T10:22:57;38.10;;;22.40;;
6926;SDS011;3503;50.07605000;8.86719200;2024-03-06T10:38:00;39.87;;;23.20;;
6926;SDS011;3503;50.07605000;8.86719200;2024-03-06T10:53:04;35.13;;;22.63;;
6926;SDS011;3503;50.07605000;8.86719200;2024-03-06T11:08:08;38.73;;;23.57;;
6926;SDS011;3503;50.07605000;8.86719200;2024-03-06T11:23:12;31.60;;;19.73;;
6926;SDS011;3503;50.07605000;8.86719200;2024-03-06T11:38:17;30.43;;;18.50;;
6926;SDS011;3503;50.07605000;8.86719200;2024-03-06T11:53:22;32.50;;;19.67;;
6926;SDS011;3503;50.07605000;8.86719200;2024-03-06T12:08:27;35.83;;;21.00;;
6926;SDS011;3503;50.07605000;8.86719200;2024-03-06T12:23:31;32.63;;;19.13;;
6926;SDS011;3503;50.07605000;8.86719200;2024-03-06T12:38:33;42.50;;;20.90;;
6926;SDS011;3503;50.07605000;8.86719200;2024-03-06T12:53:36;36.30;;;22.03;;
6926;SDS011;3503;50.07605000;8.86719200;2024-03-06T13:08:39;32.87;;;19.80;;
6926;SDS011;3503;50.07605000;8.86719200;2024-03-06T13:23:42;34.90;;;21.00;;
6926;SDS011;3503;50.07605000;8.86719200;2024-03-06T13:38:45;33.77;;;20.07;;
6926;SDS011;3503;50.07605000;8.86719200;2024-03-06T13:53:47;32.67;;;18.00;;
6926;SDS011;3503;50.07605000;8.86719200;2024-03-06T14:08:50;32.50;;;18.53;;
6926;SDS011;3503;50.07605000;8.86719200;2024-03-06T14:23:53;27.53;;;17.30;;
6926;SDS011;3503;50.07605000;8.86719200;2024-03-06T14:38:56;30.90;;;17.80;;
6926;SDS011;3503;50.07605000;8.86719200;2024-03-06T14:53:59;27.47;;;18.13;;
6926;SDS011;3503;50.07605000;8.86719200;2024-03-06T15:09:03;28.40;;;17.23;;
6926;SDS011;3503;50.07605000;8.86719200;2024-03-06T15:24:07;25.97;;;15.17;;
6926;SDS011;3503;50.07605000;8.86719200;2024-03-06T15:39:10;27.50;;;17.03;;
6926;SDS011;3503;50.07605000;8.86719200;2024-03-06T15:54:13;23.53;;;16.40;;
6926;SDS011;3503;50.07605000;8.86719200;2024-03-06T16:09:16;27.80;;;16.90;;
6926;SDS011;3503;50.07605000;8.86719200;2024-03-06T16:24:18;26.90;;;17.27;;
6926;SDS011;3503;50.07605000;8.86719200;2024-03-06T16:39:21;27.70;;;15.80;;
6926;SDS011;3503;50.07605000;8.86719200;2024-03-06T16:54:24;29.47;;;18.77;;
6926;SDS011;3503;50.07605000;8.86719200;2024-03-06T17:09:27;28.87;;;18.00;;
6926;SDS011;3503;50.07605000;8.86719200;2024-03-06T17:24:30;30.40;;;17.77;;
6926;SDS011;3503;50.07605000;8.86719200;2024-03-06T17:39:33;35.20;;;20.53;;
6926;SDS011;3503;50.07605000;8.86719200;2024-03-06T17:54:36;35.23;;;19.43;;
6926;SDS011;3503;50.07605000;8.86719200;2024-03-06T18:09:39;33.67;;;19.00;;
6926;SDS011;3503;50.07605000;8.86719200;2024-03-06T18:24:42;44.53;;;24.57;;
6926;SDS011;3503;50.07605000;8.86719200;2024-03-06T18:39:45;39.83;;;25.27;;
6926;SDS011;3503;50.07605000;8.86719200;2024-03-06T18:54:48;47.83;;;28.30;;
6926;SDS011;3503;50.07605000;8.86719200;2024-03-06T19:09:51;46.03;;;29.57;;
6926;SDS011;3503;50.07605000;8.86719200;2024-03-06T19:24:54;50.10;;;28.80;;
6926;SDS011;3503;50.07605000;8.86719200;2024-03-06T19:39:56;53.70;;;31.60;;
6926;SDS011;3503;50.07605000;8.86719200;2024-03-06T19:54:59;53.03;;;31.07;;
6926;SDS011;3503;50.07605000;8.86719200;2024-03-06T20:10:04;44.03;;;27.83;;
6926;SDS011;3503;50.07605000;8.86719200;2024-03-06T20:25:08;59.43;;;30.37;;
6926;SDS011;3503;50.07605000;8.86719200;2024-03-06T20:40:12;48.67;;;30.83;;
6926;SDS011;3503;50.07605000;8.86719200;2024-03-06T20:55:15;56.87;;;32.63;;
6926;SDS011;3503;50.07605000;8.86719200;2024-03-06T21:10:19;48.60;;;29.50;;
6926;SDS011;3503;50.07605000;8.86719200;2024-03-06T21:25:23;48.73;;;30.00;;
6926;SDS011;3503;50.07605000;8.86719200;2024-03-06T21:40:27;50.13;;;29.70;;
6926;SDS011;3503;50.07605000;8.86719200;2024-03-06T21:55:31;58.43;;;30.93;;
6926;SDS011;3503;50.07605000;8.86719200;2024-03-06T22:10:34;52.40;;;31.30;;
6926;SDS011;3503;50.07605000;8.86719200;2024-03-06T22:25:37;52.20;;;31.10;;
6926;SDS011;3503;50.07605000;8.86719200;2024-03-06T22:40:40;49.53;;;28.20;;
6926;SDS011;3503;50.07605000;8.86719200;2024-03-06T22:55:43;47.37;;;28.43;;
6926;SDS011;3503;50.07605000;8.86719200;2024-03-06T23:10:46;48.10;;;29.67;;
6926;SDS011;3503;50.07605000;8.86719200;2024-03-06T23:25:48;54.00;;;29.27;;
6926;SDS011;3503;50.07605000;8.86719200;2024-03-06T23:40:51;43.50;;;27.70;;
6926;SDS011;3503;50.07605000;8.86719200;2024-03-06T23:55:54;53.97;;;29.43;;
